Time;durP1;ratioP1;P1;durP2;ratioP2;P2;SDS_P1;SDS_P2;PMS_P1;PMS_P2;Temp;Humidity;BMP_temperature;BMP_pressure;BME280_temperature;BME280_humidity;BME280_pressure;Samples;Min_cycle;Max_cycle;Signal;HPM_P1;HPM_P2
2022/02/17 00:02:05;;;;;;;2.25;1.65;;;;;;;8.51;80.31;97700.69;1761455;81;21481;-81
2022/02/17 00:04:31;;;;;;;3.00;1.70;;;;;;;8.52;80.32;97701.06;1759910;81;21045;-81
2022/02/17 00:06:57;;;;;;;4.13;1.57;;;;;;;8.52;80.31;97689.93;1760516;81;20906;-81
2022/02/17 00:09:24;;;;;;;1.72;1.50;;;;;;;8.53;80.39;97695.45;1761790;80;22209;-81
2022/02/17 00:11:50;;;;;;;2.47;1.60;;;;;;;8.51;80.43;97684.41;1762340;80;20906;-81
2022/02/17 00:14:16;;;;;;;2.15;1.40;;;;;;;8.48;80.43;97675.10;1761152;81;22281;-81
2022/02/17 00:16:42;;;;;;;1.67;1.50;;;;;;;8.46;80.48;97673.07;1761102;81;21434;-81
2022/02/17 00:19:08;;;;;;;2.50;1.50;;;;;;;8.44;80.52;97652.18;1760240;81;20891;-81
2022/02/17 00:21:34;;;;;;;2.23;1.70;;;;;;;8.44;80.61;97647.03;1760740;81;20898;-81
2022/02/17 00:24:00;;;;;;;2.27;1.77;;;;;;;8.44;80.64;97641.88;1762076;81;20936;-81
2022/02/17 00:26:26;;;;;;;2.97;1.70;;;;;;;8.45;80.68;97633.24;1761659;80;21076;-80
2022/02/17 00:28:52;;;;;;;3.67;1.70;;;;;;;8.44;80.75;97622.11;1761901;81;22779;-80
2022/02/17 00:31:19;;;;;;;2.00;1.80;;;;;;;8.46;80.82;97614.30;1761235;80;21708;-81
2022/02/17 00:33:45;;;;;;;1.98;1.42;;;;;;;8.48;81.06;97602.17;1761950;80;22274;-81
2022/02/17 00:36:11;;;;;;;2.33;1.67;;;;;;;8.49;80.84;97581.48;1739579;80;21000;-81
2022/02/17 00:38:37;;;;;;;1.77;1.50;;;;;;;8.52;80.95;97566.33;1761838;81;21555;-80
2022/02/17 00:41:03;;;;;;;2.07;1.60;;;;;;;8.52;80.98;97562.46;1761459;81;20910;-81
2022/02/17 00:43:29;;;;;;;1.73;1.63;;;;;;;8.53;81.01;97558.52;1761680;81;21100;-81
2022/02/17 00:45:55;;;;;;;1.50;1.20;;;;;;;8.54;80.92;97549.05;1761587;80;21812;-80
2022/02/17 00:48:21;;;;;;;1.67;1.50;;;;;;;8.54;80.98;97538.28;1761233;81;21012;-81
2022/02/17 00:50:47;;;;;;;1.50;1.27;;;;;;;8.56;81.01;97519.71;1731075;82;20918;-80
2022/02/17 00:53:13;;;;;;;4.27;1.43;;;;;;;8.58;81.14;97519.62;1741667;81;21026;-80
2022/02/17 00:55:41;;;;;;;1.40;1.30;;;;;;;8.59;81.15;97505.38;1761256;81;20981;-80
2022/02/17 00:58:07;;;;;;;1.57;1.40;;;;;;;8.61;81.16;97506.11;1761599;81;20930;-80
2022/02/17 01:00:34;;;;;;;4.87;1.67;;;;;;;8.64;81.34;97508.97;1761803;81;21104;-81
2022/02/17 01:03:00;;;;;;;1.80;1.52;;;;;;;8.67;81.25;97513.11;1761480;81;21049;-81
2022/02/17 01:05:26;;;;;;;1.60;1.50;;;;;;;8.68;81.31;97509.16;1762205;80;21702;-81
2022/02/17 01:07:53;;;;;;;1.82;1.65;;;;;;;8.71;81.29;97481.11;1761180;81;22401;-82
2022/02/17 01:10:20;;;;;;;1.57;1.47;;;;;;;8.74;81.38;97486.91;1761733;81;22141;-81
2022/02/17 01:15:25;;;;;;;1.40;1.30;;;;;;;8.84;81.66;97454.51;1837663;77;22788;-80
2022/02/17 01:18:09;;;;;;;1.72;1.32;;;;;;;8.85;81.52;97443.73;1780761;79;20973;-81
2022/02/17 01:20:36;;;;;;;1.57;1.40;;;;;;;8.91;81.59;97445.95;1801654;79;21588;-80
2022/02/17 01:23:02;;;;;;;1.10;1.00;;;;;;;8.97;81.61;97424.97;1807362;79;20926;-81
2022/02/17 01:25:28;;;;;;;1.27;1.17;;;;;;;9.02;81.68;97438.41;1807457;78;20980;-81
2022/02/17 01:27:55;;;;;;;1.47;1.13;;;;;;;9.07;81.72;97417.52;1807505;79;21351;-81
2022/02/17 01:30:22;;;;;;;2.50;1.50;;;;;;;9.11;81.74;97411.25;1806872;79;21442;-80
2022/02/17 01:32:48;;;;;;;1.03;0.97;;;;;;;9.17;81.72;97395.41;1809216;79;21524;-81
2022/02/17 01:35:13;;;;;;;1.30;1.20;;;;;;;9.19;81.85;97389.70;1780463;79;21641;-81
2022/02/17 01:37:41;;;;;;;1.70;1.17;;;;;;;9.23;81.84;97375.23;1767643;79;20875;-80
2022/02/17 01:40:11;;;;;;;1.87;1.30;;;;;;;9.28;81.89;97389.13;1799178;79;21610;-80
2022/02/17 01:42:37;;;;;;;1.15;1.00;;;;;;;9.33;81.86;97373.38;1799168;79;21623;-81
2022/02/17 01:45:06;;;;;;;1.20;1.10;;;;;;;9.35;81.83;97350.44;1799521;79;21016;-81
2022/02/17 01:47:32;;;;;;;1.30;1.20;;;;;;;9.40;81.96;97330.77;1792098;79;21070;-81
2022/02/17 01:49:58;;;;;;;3.23;1.00;;;;;;;9.45;82.12;97333.42;1799641;78;20981;-81
2022/02/17 01:52:24;;;;;;;1.32;1.22;;;;;;;9.48;82.03;97311.77;1799389;78;22208;-81
2022/02/17 01:54:50;;;;;;;1.07;1.00;;;;;;;9.51;81.98;97320.14;1799353;78;21028;-81
2022/02/17 01:57:23;;;;;;;1.42;1.20;;;;;;;9.56;82.11;97295.34;1799888;79;21217;-81
2022/02/17 01:59:49;;;;;;;4.42;1.20;;;;;;;9.59;82.03;97277.09;1800144;79;20879;-81
2022/02/17 02:02:15;;;;;;;3.20;0.90;;;;;;;9.61;82.11;97281.22;1801164;78;20882;-80
2022/02/17 02:04:44;;;;;;;0.80;0.80;;;;;;;9.63;82.05;97269.05;1794665;79;20855;-80
2022/02/17 02:07:11;;;;;;;1.20;1.10;;;;;;;9.65;82.24;97257.34;1801389;79;20933;-81
2022/02/17 02:09:38;;;;;;;0.62;0.62;;;;;;;9.69;82.31;97249.77;1801101;79;20891;-81
2022/02/17 02:12:06;;;;;;;1.47;0.82;;;;;;;9.71;82.44;97219.53;1801043;79;21403;-80
2022/02/17 02:14:32;;;;;;;0.78;0.70;;;;;;;9.71;82.25;97231.14;1795114;79;20879;-81
2022/02/17 02:16:59;;;;;;;2.87;1.10;;;;;;;9.72;82.18;97220.36;1784155;80;20895;-80
2022/02/17 02:19:25;;;;;;;1.02;0.70;;;;;;;9.72;82.30;97223.77;1788722;79;21005;-80
2022/02/17 02:21:51;;;;;;;0.70;0.70;;;;;;;9.72;82.34;97234.08;1788488;79;20894;-81
2022/02/17 02:24:19;;;;;;;1.25;0.90;;;;;;;9.72;82.38;97216.48;1788007;79;21085;-81
2022/02/17 02:26:45;;;;;;;1.30;0.83;;;;;;;9.73;82.52;97209.94;1787631;80;21009;-81
2022/02/17 02:29:11;;;;;;;1.05;0.90;;;;;;;9.74;82.51;97228.82;1787723;80;21253;-80
2022/02/17 02:31:38;;;;;;;0.78;0.78;;;;;;;9.76;82.54;97213.59;1787265;80;20927;-81
2022/02/17 02:34:04;;;;;;;1.30;0.80;;;;;;;9.78;82.59;97216.08;1789050;79;20879;-81
2022/02/17 02:36:30;;;;;;;0.90;0.62;;;;;;;9.79;82.67;97213.39;1789424;79;20899;-81
2022/02/17 02:38:56;;;;;;;1.17;0.80;;;;;;;9.82;82.78;97256.23;1789123;80;20832;-81
2022/02/17 02:41:22;;;;;;;1.00;0.90;;;;;;;9.85;82.67;97249.58;1789669;79;20828;-81
2022/02/17 02:43:48;;;;;;;4.13;0.90;;;;;;;9.88;82.76;97460.48;1770794;80;20893;-80
2022/02/17 02:46:15;;;;;;;2.70;0.40;;;;;;;9.75;82.44;97528.02;1777851;80;20863;-80
2022/02/17 02:48:41;;;;;;;0.63;0.27;;;;;;;9.06;81.64;97519.78;1758597;81;20828;-80
2022/02/17 02:51:07;;;;;;;0.47;0.33;;;;;;;8.43;81.81;97512.31;1769135;80;20906;-80
2022/02/17 02:53:34;;;;;;;0.50;0.23;;;;;;;7.98;82.30;97463.80;1770898;81;20961;-81
2022/02/17 02:56:00;;;;;;;0.70;0.40;;;;;;;7.61;82.59;97470.16;1789828;80;21700;-80
2022/02/17 02:58:26;;;;;;;0.73;0.40;;;;;;;7.36;82.74;97462.10;1789448;79;20867;-80
2022/02/17 03:00:53;;;;;;;0.63;0.20;;;;;;;7.21;82.94;97491.21;1789621;79;21157;-80
2022/02/17 03:03:20;;;;;;;1.10;0.50;;;;;;;7.10;82.93;97476.35;1789548;79;21100;-81
2022/02/17 03:09:26;;;;;;;1.12;0.25;;;;;;;6.97;83.06;97441.94;1785914;80;20880;-80
2022/02/17 03:11:52;;;;;;;0.60;0.40;;;;;;;6.90;82.98;97488.11;1788713;79;20919;-80
2022/02/17 03:14:18;;;;;;;1.77;0.20;;;;;;;6.86;83.05;97487.44;1794787;79;20894;-80
2022/02/17 03:16:47;;;;;;;1.00;0.30;;;;;;;6.83;83.02;97491.44;1807612;78;20874;-80
2022/02/17 03:19:13;;;;;;;1.70;0.20;;;;;;;6.81;83.02;97525.81;1810416;79;20893;-80
2022/02/17 03:21:40;;;;;;;2.17;0.60;;;;;;;6.80;83.12;97551.11;1809933;79;21604;-80
2022/02/17 03:24:09;;;;;;;1.27;0.37;;;;;;;6.78;83.05;97541.37;1808929;79;21016;-81
2022/02/17 03:26:35;;;;;;;2.07;0.50;;;;;;;6.75;83.02;97544.95;1808154;78;20886;-81
2022/02/17 03:29:02;;;;;;;1.02;0.25;;;;;;;6.73;82.97;97542.08;1807777;79;21053;-80
2022/02/17 03:31:27;;;;;;;1.15;0.40;;;;;;;6.72;83.00;97550.23;1807766;79;21033;-80
2022/02/17 03:33:53;;;;;;;0.80;0.20;;;;;;;6.70;83.03;97562.32;1807653;78;20906;-80
2022/02/17 03:36:19;;;;;;;1.40;0.30;;;;;;;6.70;83.02;97553.34;1807925;79;20929;-80
2022/02/17 03:38:45;;;;;;;0.87;0.20;;;;;;;6.70;83.16;97554.62;1808186;79;20878;-80
2022/02/17 03:41:11;;;;;;;0.60;0.20;;;;;;;6.69;83.08;97522.14;1807816;79;20969;-80
2022/02/17 03:43:37;;;;;;;1.37;0.90;;;;;;;6.70;83.12;97508.86;1808215;79;20886;-81
2022/02/17 03:46:03;;;;;;;1.00;0.40;;;;;;;6.71;83.14;97493.37;1808280;79;20894;-80
2022/02/17 03:48:29;;;;;;;1.12;0.30;;;;;;;6.72;83.03;97471.92;1808009;78;21115;-80
2022/02/17 03:50:55;;;;;;;1.47;0.57;;;;;;;6.73;83.11;97479.17;1806390;79;20929;-80
2022/02/17 03:53:21;;;;;;;1.20;0.50;;;;;;;6.74;83.14;97400.78;1808806;79;20969;-80
2022/02/17 03:55:47;;;;;;;1.13;0.43;;;;;;;6.75;83.18;97361.36;1808500;79;20862;-80
2022/02/17 03:59:00;;;;;;;3.05;0.40;;;;;;;6.76;83.17;97464.41;1807964;79;22159;-80
2022/02/17 04:00:41;;;;;;;1.02;0.40;;;;;;;6.77;83.10;97456.25;1804230;79;21001;-80
2022/02/17 04:03:07;;;;;;;0.87;0.50;;;;;;;6.77;83.10;97474.23;1795150;79;20912;-80
2022/02/17 04:05:34;;;;;;;;;;;;;;;6.78;83.14;97450.21;1797220;79;20955;-80
2022/02/17 04:08:00;;;;;;;2.22;0.30;;;;;;;6.78;83.06;97430.95;1763069;80;20230;-80
2022/02/17 04:10:26;;;;;;;1.37;0.30;;;;;;;6.78;83.06;97430.95;1763556;80;21029;-80
2022/02/17 04:12:54;;;;;;;1.70;0.55;;;;;;;6.78;83.13;97446.36;1762795;80;21513;-80
2022/02/17 04:15:21;;;;;;;2.05;0.57;;;;;;;6.76;83.08;97448.20;1758975;80;20967;-80
2022/02/17 04:17:47;;;;;;;2.27;1.15;;;;;;;6.75;83.09;97451.23;1764320;79;21460;-80
2022/02/17 04:20:19;;;;;;;3.50;0.62;;;;;;;6.74;83.16;97430.31;1725866;82;21015;-80
2022/02/17 04:22:44;;;;;;;1.92;0.53;;;;;;;6.72;83.09;97447.53;1758995;81;20954;-80
2022/02/17 04:25:10;;;;;;;2.63;0.40;;;;;;;6.71;83.12;97442.02;1777954;80;21824;-80
2022/02/17 04:27:36;;;;;;;1.67;0.40;;;;;;;6.70;83.15;97447.23;1789802;79;20950;-80
2022/02/17 04:30:03;;;;;;;1.00;0.43;;;;;;;6.67;83.11;97435.84;1790277;79;20867;-80
2022/02/17 04:32:29;;;;;;;1.40;0.47;;;;;;;6.64;83.14;97465.89;1789285;79;20930;-80
2022/02/17 04:34:57;;;;;;;1.22;0.50;;;;;;;6.63;83.15;97507.05;1769221;80;21547;-80
2022/02/17 04:37:23;;;;;;;4.15;1.22;;;;;;;6.60;83.08;97485.37;1789613;80;20907;-80
2022/02/17 04:39:48;;;;;;;1.93;0.60;;;;;;;6.58;83.13;97474.36;1789525;80;20939;-80
2022/02/17 04:42:18;;;;;;;1.20;0.50;;;;;;;6.56;83.15;97462.05;1770492;80;21469;-80
2022/02/17 04:44:48;;;;;;;5.70;1.07;;;;;;;6.54;83.16;97456.16;1789521;79;21052;-80
2022/02/17 04:47:15;;;;;;;4.53;1.05;;;;;;;6.54;83.16;97456.16;1788704;79;21029;-79
2022/02/17 04:49:42;;;;;;;2.95;0.70;;;;;;;6.52;83.21;97434.42;1791312;79;21803;-79
2022/02/17 04:52:08;;;;;;;;;;;;;;;6.53;83.20;97415.55;1775221;80;20858;-79
2022/02/17 04:54:35;;;;;;;3.85;0.75;;;;;;;6.52;83.27;97425.44;1750007;81;20160;-79
2022/02/17 04:57:04;;;;;;;5.62;0.82;;;;;;;6.52;83.22;97435.70;1770181;81;20961;-79
2022/02/17 04:59:30;;;;;;;2.58;0.62;;;;;;;6.54;83.28;97442.05;1789534;79;21659;-79
2022/02/17 05:02:00;;;;;;;3.08;1.00;;;;;;;6.52;83.24;97431.86;1789236;79;21461;-79
2022/02/17 05:04:26;;;;;;;2.92;0.95;;;;;;;6.52;83.23;97428.45;1789626;79;21029;-79
2022/02/17 05:06:52;;;;;;;3.37;1.00;;;;;;;6.50;83.22;97439.25;1789899;79;25819;-80
2022/02/17 05:09:19;;;;;;;2.47;1.05;;;;;;;6.47;83.24;97441.52;1739912;82;21551;-80
2022/02/17 05:11:46;;;;;;;4.60;1.57;;;;;;;6.47;83.30;97456.09;1762989;80;21038;-80
2022/02/17 05:14:11;;;;;;;4.40;1.05;;;;;;;6.48;83.35;97459.87;1788691;79;25846;-80
2022/02/17 05:16:38;;;;;;;4.50;1.10;;;;;;;6.52;83.38;97447.26;1754324;80;21444;-81
2022/02/17 05:19:04;;;;;;;3.00;1.10;;;;;;;6.55;83.37;97420.15;1739610;82;21634;-80
2022/02/17 05:24:06;;;;;;;6.58;1.55;;;;;;;6.64;83.36;97416.29;1818856;78;22192;-79
2022/02/17 05:26:33;;;;;;;3.65;1.25;;;;;;;6.62;83.38;97397.11;1781192;79;21422;-81
2022/02/17 05:28:59;;;;;;;5.10;1.47;;;;;;;6.65;83.40;97402.54;1781460;80;21461;-80
2022/02/17 05:31:25;;;;;;;5.47;1.37;;;;;;;6.67;83.42;97414.84;1755604;80;21635;-79
2022/02/17 05:33:51;;;;;;;4.90;1.52;;;;;;;6.70;83.44;97433.12;1774308;80;20922;-79
2022/02/17 05:36:17;;;;;;;7.15;1.55;;;;;;;6.72;83.45;97437.27;1760089;80;21675;-80
2022/02/17 05:38:43;;;;;;;4.17;1.10;;;;;;;6.76;83.44;97427.18;1775304;80;20895;-80
2022/02/17 05:41:10;;;;;;;7.50;2.30;;;;;;;6.79;83.44;97434.72;1780121;79;21596;-80
2022/02/17 05:43:37;;;;;;;4.92;1.30;;;;;;;6.81;83.47;97447.03;1749221;81;21480;-81
2022/02/17 05:46:03;;;;;;;7.08;1.40;;;;;;;6.85;83.47;97444.69;1759603;80;20985;-81
2022/02/17 05:48:29;;;;;;;8.58;1.65;;;;;;;6.87;83.45;97438.19;1775326;80;21486;-80
2022/02/17 05:50:55;;;;;;;8.58;1.85;;;;;;;6.90;83.42;97450.87;1763502;79;21516;-80
2022/02/17 05:53:21;;;;;;;8.97;2.33;;;;;;;6.90;83.39;97442.70;1774426;79;20894;-81
2022/02/17 05:55:47;;;;;;;6.47;1.97;;;;;;;6.93;83.46;97400.17;1759347;79;21469;-80
2022/02/17 05:58:13;;;;;;;6.65;1.62;;;;;;;6.96;83.47;97405.14;1761413;80;21810;-80
2022/02/17 06:00:40;;;;;;;8.37;1.67;;;;;;;6.98;83.45;97416.17;1768723;79;20887;-80
2022/02/17 06:03:06;;;;;;;;;;;;;;;7.01;83.46;97417.75;1782683;80;21034;-80
2022/02/17 06:05:31;;;;;;;6.40;2.10;;;;;;;7.05;83.55;97419.24;1756617;80;20810;-80
2022/02/17 06:08:01;;;;;;;6.25;1.52;;;;;;;7.08;83.51;97442.20;1769161;80;21612;-80
2022/02/17 06:10:27;;;;;;;3.95;1.22;;;;;;;7.13;83.49;97456.09;1642532;79;10000622;-80
2022/02/17 06:12:53;;;;;;;5.80;1.40;;;;;;;7.18;83.51;97439.98;1738458;80;20949;-80
2022/02/17 06:15:19;;;;;;;5.50;1.73;;;;;;;7.22;83.45;97425.61;1770545;80;21028;-80
2022/02/17 06:17:45;;;;;;;3.27;1.17;;;;;;;7.23;83.42;97409.27;1779625;79;21540;-80
2022/02/17 06:20:12;;;;;;;3.35;1.05;;;;;;;7.24;83.35;97395.52;1777774;79;21670;-80
2022/02/17 06:22:49;;;;;;;2.77;1.30;;;;;;;7.25;83.34;97407.91;1774285;79;27067;-80
2022/02/17 06:25:17;;;;;;;6.00;1.37;;;;;;;7.24;83.33;97410.94;1747590;79;21088;-80
2022/02/17 06:27:43;;;;;;;3.30;1.20;;;;;;;7.24;83.34;97439.20;1622751;78;10001042;-80
2022/02/17 06:30:10;;;;;;;3.42;1.37;;;;;;;7.23;83.32;97449.11;1743513;79;21521;-80
2022/02/17 06:32:49;;;;;;;5.10;1.22;;;;;;;7.25;83.30;97447.28;1754024;79;20974;-79
2022/02/17 06:35:26;;;;;;;3.20;1.10;;;;;;;7.25;83.26;97452.88;1754302;81;21046;-80
2022/02/17 06:37:53;;;;;;;6.03;1.25;;;;;;;7.25;83.21;97449.85;1686349;84;21602;-80
2022/02/17 06:40:20;;;;;;;7.12;1.45;;;;;;;7.23;83.16;97447.82;1702450;83;20919;-80
2022/02/17 06:42:48;;;;;;;2.95;0.80;;;;;;;7.21;83.09;97468.91;1698609;82;20989;-80
2022/02/17 06:45:14;;;;;;;1.47;0.78;;;;;;;7.20;83.13;97468.54;1684946;84;20891;-80
2022/02/17 06:47:41;;;;;;;3.52;1.45;;;;;;;7.18;83.10;97458.80;1695170;83;21427;-80
2022/02/17 06:50:09;;;;;;;5.53;1.70;;;;;;;7.17;83.08;97472.55;1730023;82;25547;-80
2022/02/17 06:52:36;;;;;;;4.10;1.45;;;;;;;7.16;83.08;97473.92;1708113;83;20927;-81
2022/02/17 06:55:03;;;;;;;4.90;1.27;;;;;;;7.16;82.96;97476.48;1707113;83;20982;-81
2022/02/17 06:57:29;;;;;;;2.35;1.30;;;;;;;7.15;82.96;97501.80;1713207;82;21478;-80
2022/02/17 06:59:56;;;;;;;2.93;1.40;;;;;;;7.14;82.96;97500.98;1718406;83;20900;-81
2022/02/17 07:02:24;;;;;;;4.92;1.05;;;;;;;7.12;82.93;97503.25;1717879;82;20907;-81
2022/02/17 07:04:51;;;;;;;3.22;1.07;;;;;;;7.09;82.83;97522.22;1719192;81;20926;-81
2022/02/17 07:07:18;;;;;;;2.62;1.10;;;;;;;7.06;82.72;97505.68;1676586;84;20945;-81
2022/02/17 07:09:45;;;;;;;2.10;1.22;;;;;;;7.03;82.70;97486.57;1698079;83;20907;-82
2022/02/17 07:12:11;;;;;;;4.05;1.22;;;;;;;7.01;82.79;97517.09;1684824;83;20911;-81
2022/02/17 07:14:39;;;;;;;6.70;1.10;;;;;;;6.95;82.62;97515.22;1684796;83;20894;-81
2022/02/17 07:17:05;;;;;;;4.67;1.27;;;;;;;6.92;82.58;97523.08;1672169;84;20941;-81
2022/02/17 07:19:31;;;;;;;6.53;1.15;;;;;;;6.89;82.62;97527.54;1725620;82;20875;-80
2022/02/17 07:22:00;;;;;;;5.92;0.70;;;;;;;6.88;82.63;97523.31;1689887;83;20898;-84
2022/02/17 07:24:27;;;;;;;4.33;0.85;;;;;;;6.91;82.60;97522.70;1683174;83;20994;-77
2022/02/17 07:26:53;;;;;;;4.60;1.10;;;;;;;7.03;82.63;97531.53;1681993;83;20975;-82
2022/02/17 07:29:21;;;;;;;3.90;1.27;;;;;;;7.12;82.52;97513.07;1710175;83;20935;-80
2022/02/17 07:31:52;;;;;;;5.15;1.15;;;;;;;7.20;82.39;97542.23;1712720;82;21293;-80
2022/02/17 07:34:15;;;;;;;7.37;1.30;;;;;;;7.29;82.45;97535.30;1713206;82;20935;-82
2022/02/17 07:36:41;;;;;;;8.40;1.40;;;;;;;7.36;82.24;97544.80;1717350;82;21032;-82
2022/02/17 07:39:07;;;;;;;7.17;1.40;;;;;;;7.41;82.15;97539.80;1706336;82;21054;-80
2022/02/17 07:41:37;;;;;;;4.42;1.42;;;;;;;7.41;82.15;97539.80;1712144;82;22041;-81
2022/02/17 07:44:05;;;;;;;4.47;1.15;;;;;;;7.61;82.08;97557.58;1695407;82;21032;-81
2022/02/17 07:46:32;;;;;;;3.67;1.42;;;;;;;7.69;82.09;97563.61;1716938;82;21121;-81
2022/02/17 07:49:00;;;;;;;;;;;;;;;7.77;82.06;97556.31;1727511;82;21078;-81
2022/02/17 07:51:27;;;;;;;5.58;1.22;;;;;;;7.83;81.31;97558.53;1712773;82;20177;-81
2022/02/17 07:53:53;;;;;;;7.72;1.25;;;;;;;7.90;81.75;97564.17;1704744;82;21046;-81
2022/02/17 07:56:19;;;;;;;5.45;1.50;;;;;;;7.98;81.87;97562.84;1726109;82;21071;-81
2022/02/17 07:58:45;;;;;;;10.80;2.10;;;;;;;8.10;81.86;97554.91;1710775;82;21075;-81
2022/02/17 08:01:11;;;;;;;7.40;1.80;;;;;;;8.25;81.91;97562.25;1689450;82;21117;-81
2022/02/17 08:03:39;;;;;;;4.87;1.47;;;;;;;8.36;81.79;97586.12;1687065;83;21085;-81
2022/02/17 08:06:07;;;;;;;4.65;1.35;;;;;;;8.42;81.63;97557.00;1725413;82;20900;-81
2022/02/17 08:08:33;;;;;;;5.87;1.30;;;;;;;8.43;81.29;97559.94;1712622;82;21314;-81
2022/02/17 08:11:00;;;;;;;6.20;1.55;;;;;;;8.45;81.18;97555.54;1685203;82;28233;-81
2022/02/17 08:13:26;;;;;;;8.83;1.80;;;;;;;8.46;81.14;97552.05;1703988;82;21070;-81
2022/02/17 08:15:54;;;;;;;5.40;1.37;;;;;;;8.44;81.03;97545.33;1712331;82;20974;-81
2022/02/17 08:18:20;;;;;;;5.90;1.57;;;;;;;8.40;80.69;97552.39;1711031;82;21065;-81
2022/02/17 08:20:46;;;;;;;9.18;2.58;;;;;;;8.39;80.74;97533.17;1714900;82;21085;-80
2022/02/17 08:23:12;;;;;;;9.95;2.30;;;;;;;8.37;80.53;97545.30;1698962;82;21119;-81
2022/02/17 08:25:40;;;;;;;7.73;2.03;;;;;;;8.40;80.73;97548.53;1696654;83;21117;-80
2022/02/17 08:28:06;;;;;;;9.05;2.20;;;;;;;8.44;80.66;97543.58;1699957;83;21760;-81
2022/02/17 08:30:36;;;;;;;10.43;1.55;;;;;;;8.44;80.11;97552.59;1698666;83;21053;-81
2022/02/17 08:33:04;;;;;;;7.67;2.00;;;;;;;8.45;80.56;97555.54;1670303;84;21076;-80
2022/02/17 08:35:33;;;;;;;4.22;1.80;;;;;;;8.47;80.50;97552.42;1676931;84;21085;-80
2022/02/17 08:38:00;;;;;;;9.90;1.70;;;;;;;8.48;80.37;97541.66;1703561;83;21061;-80
2022/02/17 08:40:30;;;;;;;4.00;1.37;;;;;;;8.49;80.32;97539.45;1669329;83;21066;-81
2022/02/17 08:43:08;;;;;;;12.43;2.55;;;;;;;8.50;79.50;97523.92;1654381;85;21081;-81
2022/02/17 08:45:27;;;;;;;10.08;2.00;;;;;;;8.50;80.16;97541.95;1676273;85;21033;-81
2022/02/17 08:47:54;;;;;;;5.93;1.50;;;;;;;8.49;79.82;97536.42;1679507;85;20993;-81
2022/02/17 08:50:20;;;;;;;4.78;1.67;;;;;;;8.49;79.77;97544.16;1678863;84;21099;-81
2022/02/17 08:52:46;;;;;;;7.57;1.37;;;;;;;8.50;79.88;97539.83;1670150;84;20973;-81
2022/02/17 08:55:13;;;;;;;7.45;1.92;;;;;;;8.48;79.45;97502.58;1661251;84;21069;-81
2022/02/17 08:57:41;;;;;;;7.17;1.70;;;;;;;8.48;79.67;97521.89;1667952;84;21021;-80
2022/02/17 09:00:09;;;;;;;7.80;1.85;;;;;;;8.49;79.58;97504.70;1683755;84;21465;-80
2022/02/17 09:02:35;;;;;;;7.67;2.22;;;;;;;8.49;79.41;97506.81;1682795;84;20922;-82
2022/02/17 09:05:01;;;;;;;3.53;1.40;;;;;;;8.52;79.64;97515.66;1678040;84;20890;-82
2022/02/17 09:07:27;;;;;;;8.53;2.27;;;;;;;8.54;79.30;97520.25;1681640;84;20874;-83
2022/02/17 09:09:52;;;;;;;9.23;2.73;;;;;;;8.58;79.01;97507.58;1685019;84;20858;-82
2022/02/17 09:12:18;;;;;;;9.13;2.07;;;;;;;8.65;79.23;97524.80;1687002;84;21067;-81
2022/02/17 09:14:44;;;;;;;7.90;2.10;;;;;;;8.73;79.15;97527.76;1665703;84;21049;-81
2022/02/17 09:17:10;;;;;;;8.67;1.93;;;;;;;8.81;79.04;97528.60;1681531;84;21004;-81
2022/02/17 09:19:37;;;;;;;7.13;2.07;;;;;;;8.89;78.43;97516.07;1669414;84;20978;-81
2022/02/17 09:22:03;;;;;;;8.80;2.80;;;;;;;8.95;78.37;97528.59;1675542;83;21102;-81
2022/02/17 09:24:30;;;;;;;7.53;1.70;;;;;;;9.01;78.51;97541.58;1718496;81;21411;-81
2022/02/17 09:26:56;;;;;;;6.87;1.40;;;;;;;9.02;78.15;97540.20;1709028;83;20905;-81
2022/02/17 09:29:22;;;;;;;6.37;1.50;;;;;;;9.00;77.99;97550.23;1755805;80;20894;-82
2022/02/17 09:31:48;;;;;;;6.23;1.43;;;;;;;8.96;77.83;97563.76;1781622;79;21466;-82
2022/02/17 09:34:14;;;;;;;7.63;2.63;;;;;;;8.87;77.66;97544.50;1763896;79;20883;-80
2022/02/17 09:36:40;;;;;;;8.78;2.22;;;;;;;8.80;77.28;97583.16;1758362;80;20962;-81
2022/02/17 09:39:07;;;;;;;6.80;1.70;;;;;;;8.74;76.73;97560.33;1768728;79;20933;-82
2022/02/17 09:41:33;;;;;;;6.90;1.90;;;;;;;8.68;77.35;97577.87;1700967;82;20907;-80
2022/02/17 09:44:07;;;;;;;6.13;1.40;;;;;;;8.56;77.18;97592.28;1759185;80;21040;-81
2022/02/17 09:46:36;;;;;;;9.53;2.47;;;;;;;8.41;76.39;97566.92;1763673;80;20938;-82
2022/02/17 09:49:03;;;;;;;6.03;1.65;;;;;;;8.27;76.90;97585.70;1774033;80;20943;-81
2022/02/17 09:51:32;;;;;;;8.15;2.27;;;;;;;8.17;77.01;97596.13;1776687;79;20934;-81
2022/02/17 09:54:00;;;;;;;9.28;1.98;;;;;;;8.10;76.96;97605.55;1756282;80;20945;-82
2022/02/17 09:56:26;;;;;;;8.93;2.47;;;;;;;8.05;76.72;97608.83;1733778;78;21069;-84
2022/02/17 09:58:54;;;;;;;9.78;2.47;;;;;;;7.99;76.98;97608.70;1761473;78;21108;-82
2022/02/17 10:01:26;;;;;;;7.87;1.95;;;;;;;7.96;76.84;97635.42;1752206;79;21076;-81
2022/02/17 10:04:14;;;;;;;6.30;1.95;;;;;;;7.86;76.86;97626.98;1751053;80;20938;-82
2022/02/17 10:06:43;;;;;;;9.63;2.10;;;;;;;7.76;76.99;97648.53;1766995;78;21835;-83
2022/02/17 10:09:12;;;;;;;9.40;1.87;;;;;;;7.62;77.03;97647.13;1738963;80;20977;-82
2022/02/17 10:11:39;;;;;;;10.05;1.47;;;;;;;7.53;77.21;97646.31;1781636;79;20880;-82
2022/02/17 10:14:09;;;;;;;6.70;1.60;;;;;;;7.42;77.13;97655.85;1775789;79;20918;-82
2022/02/17 10:17:03;;;;;;;5.40;1.60;;;;;;;7.32;77.13;97662.36;1701806;82;20966;-82
2022/02/17 10:19:36;;;;;;;11.25;2.05;;;;;;;7.22;77.20;97658.62;1691891;83;20966;-81
2022/02/17 10:22:20;;;;;;;9.10;2.05;;;;;;;7.10;77.31;97661.34;1771673;78;27993;-83
2022/02/17 10:24:53;;;;;;;3.37;1.67;;;;;;;7.06;77.45;97670.10;1756619;78;20942;-82
2022/02/17 10:27:29;;;;;;;6.95;1.80;;;;;;;7.04;77.44;97691.64;1707149;82;20911;-81
2022/02/17 10:30:13;;;;;;;4.50;1.17;;;;;;;7.03;77.50;97679.70;1724992;82;21455;-81
2022/02/17 10:32:56;;;;;;;5.97;1.37;;;;;;;7.03;77.36;97687.41;1714379;82;20922;-80
2022/02/17 10:35:23;;;;;;;3.98;1.15;;;;;;;7.02;77.47;97678.86;1638925;82;20974;-81
2022/02/17 10:37:59;;;;;;;7.03;1.72;;;;;;;7.07;77.63;97698.73;1654678;85;20928;-81
2022/02/17 10:40:31;;;;;;;6.00;1.85;;;;;;;7.15;77.65;97690.20;1658512;86;20937;-80
2022/02/17 10:43:06;;;;;;;5.67;1.70;;;;;;;7.24;77.66;97697.47;1647360;86;20945;-81
2022/02/17 10:45:32;;;;;;;7.37;1.35;;;;;;;7.36;77.71;97705.45;1639017;86;20972;-81
2022/02/17 10:48:23;;;;;;;3.22;1.30;;;;;;;7.48;77.49;97737.81;1641317;85;20981;-83
2022/02/17 10:51:14;;;;;;;6.17;1.12;;;;;;;7.55;77.56;97704.46;1645014;86;20900;-82
2022/02/17 10:53:49;;;;;;;4.87;1.42;;;;;;;7.61;77.40;97694.32;1640102;85;20956;-82
2022/02/17 10:56:20;;;;;;;4.75;1.40;;;;;;;7.59;77.43;97712.85;1646327;86;20940;-83
2022/02/17 10:58:50;;;;;;;7.75;1.60;;;;;;;7.58;77.54;97739.02;1647331;86;20964;-83
2022/02/17 11:01:20;;;;;;;3.70;1.12;;;;;;;7.60;77.66;97733.80;1632694;86;20968;-83
2022/02/17 11:03:51;;;;;;;6.83;1.20;;;;;;;7.70;77.68;97714.88;1638521;86;20969;-83
2022/02/17 11:06:18;;;;;;;4.62;1.30;;;;;;;7.77;77.59;97712.38;1651906;85;20969;-83
2022/02/17 11:08:47;;;;;;;6.67;1.85;;;;;;;7.80;77.44;97728.94;1628813;85;20956;-83
2022/02/17 11:11:18;;;;;;;4.40;1.92;;;;;;;7.78;77.47;97738.02;1656930;85;21322;-83
2022/02/17 11:13:47;;;;;;;4.67;1.22;;;;;;;7.73;77.51;97740.00;1642594;86;21115;-83
2022/02/17 11:16:15;;;;;;;6.30;1.42;;;;;;;7.70;77.50;97763.30;1650495;85;21094;-82
2022/02/17 11:18:42;;;;;;;4.15;1.50;;;;;;;7.64;77.55;97755.43;1623892;86;21088;-82
2022/02/17 11:21:14;;;;;;;3.05;1.12;;;;;;;7.62;77.59;97743.55;1655935;85;21091;-83
2022/02/17 11:23:40;;;;;;;2.05;0.75;;;;;;;7.61;77.62;97758.16;1654054;85;20901;-82
2022/02/17 11:26:29;;;;;;;2.67;0.90;;;;;;;7.61;77.63;97771.47;1659577;85;20980;-83
2022/02/17 11:28:56;;;;;;;2.85;1.27;;;;;;;7.60;77.65;97773.66;1654966;85;20924;-83
2022/02/17 11:31:22;;;;;;;3.90;1.05;;;;;;;7.59;77.67;97771.99;1655435;85;20976;-83
2022/02/17 11:33:57;;;;;;;1.57;0.80;;;;;;;7.63;77.77;97755.05;1664666;84;21584;-82
2022/02/17 11:36:27;;;;;;;4.17;1.27;;;;;;;7.67;77.63;97765.19;1652407;85;20931;-82
2022/02/17 11:39:06;;;;;;;10.88;1.30;;;;;;;7.71;77.73;97791.13;1644714;85;20908;-84
2022/02/17 11:41:36;;;;;;;3.02;0.98;;;;;;;7.75;77.67;97769.04;1652187;84;20952;-82
2022/02/17 11:44:20;;;;;;;5.05;1.02;;;;;;;7.78;77.65;97788.18;1653557;85;21412;-82
2022/02/17 11:46:52;;;;;;;3.12;1.25;;;;;;;7.83;77.67;97820.08;1657355;85;20948;-82
2022/02/17 11:49:35;;;;;;;2.92;0.75;;;;;;;7.86;77.57;97813.03;1659739;85;20900;-82
2022/02/17 11:52:18;;;;;;;3.58;1.30;;;;;;;7.90;77.51;97839.44;1657363;85;20935;-81
2022/02/17 11:55:17;;;;;;;6.25;1.22;;;;;;;7.89;77.58;97833.47;1669768;85;20957;-80